sensor_id;sensor_type;location;lat;lon;timestamp;P1;durP1;ratioP1;P2;durP2;ratioP2
18740;SDS011;9499;52.472;13.448;2022-07-26T00:01:52;2.70;;;1.10;;
18740;SDS011;9499;52.472;13.448;2022-07-26T00:04:19;5.70;;;1.17;;
18740;SDS011;9499;52.472;13.448;2022-07-26T00:06:45;2.40;;;2.00;;
18740;SDS011;9499;52.472;13.448;2022-07-26T00:09:13;2.80;;;1.77;;
18740;SDS011;9499;52.472;13.448;2022-07-26T00:11:40;1.80;;;1.10;;
18740;SDS011;9499;52.472;13.448;2022-07-26T00:14:07;3.10;;;1.60;;
18740;SDS011;9499;52.472;13.448;2022-07-26T00:16:34;1.77;;;0.97;;
18740;SDS011;9499;52.472;13.448;2022-07-26T00:19:02;1.70;;;0.83;;
18740;SDS011;9499;52.472;13.448;2022-07-26T00:21:28;1.57;;;0.77;;
18740;SDS011;9499;52.472;13.448;2022-07-26T00:23:55;1.40;;;0.83;;
18740;SDS011;9499;52.472;13.448;2022-07-26T00:26:24;2.27;;;1.60;;
18740;SDS011;9499;52.472;13.448;2022-07-26T00:28:50;1.63;;;0.90;;
18740;SDS011;9499;52.472;13.448;2022-07-26T00:31:17;2.60;;;1.43;;
18740;SDS011;9499;52.472;13.448;2022-07-26T00:33:43;2.17;;;1.40;;
18740;SDS011;9499;52.472;13.448;2022-07-26T00:36:10;1.70;;;1.03;;
18740;SDS011;9499;52.472;13.448;2022-07-26T00:38:36;1.80;;;1.00;;
18740;SDS011;9499;52.472;13.448;2022-07-26T00:41:04;2.17;;;1.40;;
18740;SDS011;9499;52.472;13.448;2022-07-26T00:43:32;1.73;;;0.93;;
18740;SDS011;9499;52.472;13.448;2022-07-26T00:45:59;1.93;;;1.20;;
18740;SDS011;9499;52.472;13.448;2022-07-26T00:48:26;1.50;;;1.27;;
18740;SDS011;9499;52.472;13.448;2022-07-26T00:50:53;1.57;;;0.93;;
18740;SDS011;9499;52.472;13.448;2022-07-26T00:53:20;3.07;;;1.67;;
18740;SDS011;9499;52.472;13.448;2022-07-26T00:55:48;2.10;;;1.83;;
18740;SDS011;9499;52.472;13.448;2022-07-26T00:58:15;1.63;;;1.27;;
18740;SDS011;9499;52.472;13.448;2022-07-26T01:00:44;1.97;;;1.07;;
18740;SDS011;9499;52.472;13.448;2022-07-26T01:03:11;2.20;;;1.90;;
18740;SDS011;9499;52.472;13.448;2022-07-26T01:05:38;1.30;;;0.70;;
18740;SDS011;9499;52.472;13.448;2022-07-26T01:08:04;1.33;;;0.57;;
18740;SDS011;9499;52.472;13.448;2022-07-26T01:10:31;1.80;;;0.97;;
18740;SDS011;9499;52.472;13.448;2022-07-26T01:12:57;1.93;;;0.93;;
18740;SDS011;9499;52.472;13.448;2022-07-26T01:15:24;2.10;;;0.97;;
18740;SDS011;9499;52.472;13.448;2022-07-26T01:17:52;1.27;;;0.60;;
18740;SDS011;9499;52.472;13.448;2022-07-26T01:20:19;2.07;;;1.40;;
18740;SDS011;9499;52.472;13.448;2022-07-26T01:22:47;5.37;;;1.40;;
18740;SDS011;9499;52.472;13.448;2022-07-26T01:25:13;1.93;;;1.10;;
18740;SDS011;9499;52.472;13.448;2022-07-26T01:27:40;2.43;;;1.17;;
18740;SDS011;9499;52.472;13.448;2022-07-26T01:30:08;2.90;;;1.27;;
18740;SDS011;9499;52.472;13.448;2022-07-26T01:32:36;2.30;;;1.30;;
18740;SDS011;9499;52.472;13.448;2022-07-26T01:35:03;1.77;;;1.27;;
18740;SDS011;9499;52.472;13.448;2022-07-26T01:37:30;2.10;;;1.57;;
18740;SDS011;9499;52.472;13.448;2022-07-26T01:39:58;1.40;;;0.97;;
18740;SDS011;9499;52.472;13.448;2022-07-26T01:42:24;1.57;;;0.90;;
18740;SDS011;9499;52.472;13.448;2022-07-26T01:44:51;3.00;;;1.20;;
18740;SDS011;9499;52.472;13.448;2022-07-26T01:47:17;1.63;;;1.07;;
18740;SDS011;9499;52.472;13.448;2022-07-26T01:49:44;1.30;;;0.80;;
18740;SDS011;9499;52.472;13.448;2022-07-26T01:52:10;2.00;;;1.50;;
18740;SDS011;9499;52.472;13.448;2022-07-26T01:54:37;1.73;;;1.27;;
18740;SDS011;9499;52.472;13.448;2022-07-26T01:57:04;3.33;;;1.93;;
18740;SDS011;9499;52.472;13.448;2022-07-26T01:59:31;2.40;;;1.60;;
18740;SDS011;9499;52.472;13.448;2022-07-26T02:01:58;3.00;;;1.63;;
18740;SDS011;9499;52.472;13.448;2022-07-26T02:04:24;4.40;;;2.10;;
18740;SDS011;9499;52.472;13.448;2022-07-26T02:07:08;3.10;;;1.03;;
18740;SDS011;9499;52.472;13.448;2022-07-26T02:09:34;3.23;;;2.00;;
18740;SDS011;9499;52.472;13.448;2022-07-26T02:12:01;2.13;;;1.20;;
18740;SDS011;9499;52.472;13.448;2022-07-26T02:14:29;1.93;;;1.13;;
18740;SDS011;9499;52.472;13.448;2022-07-26T02:16:55;2.47;;;1.60;;
18740;SDS011;9499;52.472;13.448;2022-07-26T02:19:23;2.70;;;1.47;;
18740;SDS011;9499;52.472;13.448;2022-07-26T02:21:50;1.50;;;1.10;;
18740;SDS011;9499;52.472;13.448;2022-07-26T02:24:16;2.13;;;1.30;;
18740;SDS011;9499;52.472;13.448;2022-07-26T02:26:43;1.47;;;1.13;;
18740;SDS011;9499;52.472;13.448;2022-07-26T02:29:09;1.90;;;1.47;;
18740;SDS011;9499;52.472;13.448;2022-07-26T02:31:37;1.90;;;1.20;;
18740;SDS011;9499;52.472;13.448;2022-07-26T02:34:04;4.10;;;1.67;;
18740;SDS011;9499;52.472;13.448;2022-07-26T02:36:30;1.73;;;1.10;;
18740;SDS011;9499;52.472;13.448;2022-07-26T02:38:57;1.90;;;1.17;;
18740;SDS011;9499;52.472;13.448;2022-07-26T02:41:23;2.57;;;1.30;;
18740;SDS011;9499;52.472;13.448;2022-07-26T02:43:50;1.10;;;0.50;;
18740;SDS011;9499;52.472;13.448;2022-07-26T02:46:16;1.43;;;0.60;;
18740;SDS011;9499;52.472;13.448;2022-07-26T02:48:44;2.27;;;1.30;;
18740;SDS011;9499;52.472;13.448;2022-07-26T02:51:11;1.37;;;0.73;;
18740;SDS011;9499;52.472;13.448;2022-07-26T02:53:37;1.97;;;1.77;;
18740;SDS011;9499;52.472;13.448;2022-07-26T02:56:04;2.37;;;1.77;;
18740;SDS011;9499;52.472;13.448;2022-07-26T02:58:30;4.07;;;2.13;;
18740;SDS011;9499;52.472;13.448;2022-07-26T03:00:57;3.77;;;1.83;;
18740;SDS011;9499;52.472;13.448;2022-07-26T03:03:24;1.50;;;0.70;;
18740;SDS011;9499;52.472;13.448;2022-07-26T03:05:52;3.10;;;1.77;;
18740;SDS011;9499;52.472;13.448;2022-07-26T03:08:18;1.73;;;1.13;;
18740;SDS011;9499;52.472;13.448;2022-07-26T03:10:45;1.90;;;1.07;;
18740;SDS011;9499;52.472;13.448;2022-07-26T03:13:12;2.63;;;1.73;;
18740;SDS011;9499;52.472;13.448;2022-07-26T03:15:39;2.60;;;1.47;;
18740;SDS011;9499;52.472;13.448;2022-07-26T03:18:05;2.10;;;1.20;;
18740;SDS011;9499;52.472;13.448;2022-07-26T03:20:32;2.03;;;1.70;;
18740;SDS011;9499;52.472;13.448;2022-07-26T03:22:59;2.50;;;1.70;;
18740;SDS011;9499;52.472;13.448;2022-07-26T03:25:26;2.23;;;1.40;;
18740;SDS011;9499;52.472;13.448;2022-07-26T03:27:53;1.83;;;1.17;;
18740;SDS011;9499;52.472;13.448;2022-07-26T03:30:20;1.60;;;1.13;;
18740;SDS011;9499;52.472;13.448;2022-07-26T03:32:47;2.17;;;1.37;;
18740;SDS011;9499;52.472;13.448;2022-07-26T03:35:14;2.63;;;1.40;;
18740;SDS011;9499;52.472;13.448;2022-07-26T03:37:40;2.00;;;1.50;;
18740;SDS011;9499;52.472;13.448;2022-07-26T03:40:09;1.33;;;0.93;;
18740;SDS011;9499;52.472;13.448;2022-07-26T03:42:36;1.10;;;0.50;;
18740;SDS011;9499;52.472;13.448;2022-07-26T03:45:02;2.17;;;1.40;;
18740;SDS011;9499;52.472;13.448;2022-07-26T03:47:29;2.90;;;1.20;;
18740;SDS011;9499;52.472;13.448;2022-07-26T03:49:56;1.20;;;1.00;;
18740;SDS011;9499;52.472;13.448;2022-07-26T03:52:22;2.73;;;1.53;;
18740;SDS011;9499;52.472;13.448;2022-07-26T03:54:49;1.80;;;1.20;;
18740;SDS011;9499;52.472;13.448;2022-07-26T03:57:17;1.30;;;0.97;;
18740;SDS011;9499;52.472;13.448;2022-07-26T03:59:42;1.77;;;1.20;;
18740;SDS011;9499;52.472;13.448;2022-07-26T04:02:09;1.10;;;0.70;;
18740;SDS011;9499;52.472;13.448;2022-07-26T04:04:35;1.27;;;0.80;;
18740;SDS011;9499;52.472;13.448;2022-07-26T04:07:02;2.13;;;1.33;;
18740;SDS011;9499;52.472;13.448;2022-07-26T04:09:28;1.77;;;1.23;;
18740;SDS011;9499;52.472;13.448;2022-07-26T04:11:55;1.40;;;0.87;;
18740;SDS011;9499;52.472;13.448;2022-07-26T04:14:23;1.10;;;0.60;;
18740;SDS011;9499;52.472;13.448;2022-07-26T04:16:49;1.87;;;0.90;;
18740;SDS011;9499;52.472;13.448;2022-07-26T04:19:16;1.83;;;1.13;;
18740;SDS011;9499;52.472;13.448;2022-07-26T04:21:42;1.10;;;0.57;;
18740;SDS011;9499;52.472;13.448;2022-07-26T04:24:09;1.20;;;0.77;;
18740;SDS011;9499;52.472;13.448;2022-07-26T04:26:35;3.33;;;1.60;;
18740;SDS011;9499;52.472;13.448;2022-07-26T04:29:02;3.97;;;1.17;;
18740;SDS011;9499;52.472;13.448;2022-07-26T04:31:30;1.30;;;0.80;;
18740;SDS011;9499;52.472;13.448;2022-07-26T04:33:56;2.07;;;0.80;;
18740;SDS011;9499;52.472;13.448;2022-07-26T04:36:22;1.53;;;1.10;;
18740;SDS011;9499;52.472;13.448;2022-07-26T04:38:49;1.83;;;1.37;;
18740;SDS011;9499;52.472;13.448;2022-07-26T04:41:15;1.30;;;0.93;;
18740;SDS011;9499;52.472;13.448;2022-07-26T04:43:42;1.30;;;0.97;;
18740;SDS011;9499;52.472;13.448;2022-07-26T04:46:08;2.00;;;1.20;;
18740;SDS011;9499;52.472;13.448;2022-07-26T04:48:36;1.40;;;0.80;;
18740;SDS011;9499;52.472;13.448;2022-07-26T04:51:03;1.97;;;1.23;;
18740;SDS011;9499;52.472;13.448;2022-07-26T04:53:30;1.80;;;1.20;;
18740;SDS011;9499;52.472;13.448;2022-07-26T04:55:56;2.07;;;0.87;;
18740;SDS011;9499;52.472;13.448;2022-07-26T04:58:23;1.70;;;1.00;;
18740;SDS011;9499;52.472;13.448;2022-07-26T05:00:50;2.30;;;1.43;;
18740;SDS011;9499;52.472;13.448;2022-07-26T05:03:16;2.47;;;1.53;;
18740;SDS011;9499;52.472;13.448;2022-07-26T05:05:44;1.67;;;1.00;;
18740;SDS011;9499;52.472;13.448;2022-07-26T05:08:11;3.57;;;1.37;;
18740;SDS011;9499;52.472;13.448;2022-07-26T05:10:40;2.97;;;1.37;;
18740;SDS011;9499;52.472;13.448;2022-07-26T05:13:06;1.47;;;0.93;;
18740;SDS011;9499;52.472;13.448;2022-07-26T05:15:34;1.70;;;1.20;;
18740;SDS011;9499;52.472;13.448;2022-07-26T05:18:01;2.47;;;1.83;;
18740;SDS011;9499;52.472;13.448;2022-07-26T05:20:29;1.20;;;0.70;;
18740;SDS011;9499;52.472;13.448;2022-07-26T05:22:58;1.10;;;0.50;;
18740;SDS011;9499;52.472;13.448;2022-07-26T05:25:24;1.43;;;0.80;;
18740;SDS011;9499;52.472;13.448;2022-07-26T05:27:51;1.73;;;0.70;;
18740;SDS011;9499;52.472;13.448;2022-07-26T05:30:18;1.30;;;0.77;;
18740;SDS011;9499;52.472;13.448;2022-07-26T05:32:44;1.60;;;1.27;;
18740;SDS011;9499;52.472;13.448;2022-07-26T05:35:11;1.40;;;0.70;;
18740;SDS011;9499;52.472;13.448;2022-07-26T05:37:37;2.70;;;1.17;;
18740;SDS011;9499;52.472;13.448;2022-07-26T05:40:06;1.73;;;1.10;;
18740;SDS011;9499;52.472;13.448;2022-07-26T05:42:33;1.67;;;1.13;;
18740;SDS011;9499;52.472;13.448;2022-07-26T05:44:59;1.53;;;1.10;;
18740;SDS011;9499;52.472;13.448;2022-07-26T05:47:26;1.50;;;1.07;;
18740;SDS011;9499;52.472;13.448;2022-07-26T05:49:52;1.20;;;0.57;;
18740;SDS011;9499;52.472;13.448;2022-07-26T05:52:19;1.10;;;0.50;;
18740;SDS011;9499;52.472;13.448;2022-07-26T05:54:45;8.23;;;0.90;;
18740;SDS011;9499;52.472;13.448;2022-07-26T05:57:13;1.57;;;0.67;;
18740;SDS011;9499;52.472;13.448;2022-07-26T05:59:40;1.63;;;1.00;;
18740;SDS011;9499;52.472;13.448;2022-07-26T06:02:06;1.93;;;0.77;;
18740;SDS011;9499;52.472;13.448;2022-07-26T06:04:33;1.53;;;0.97;;
18740;SDS011;9499;52.472;13.448;2022-07-26T06:06:59;1.23;;;0.77;;
18740;SDS011;9499;52.472;13.448;2022-07-26T06:09:26;1.10;;;0.60;;
18740;SDS011;9499;52.472;13.448;2022-07-26T06:11:53;1.10;;;0.50;;
18740;SDS011;9499;52.472;13.448;2022-07-26T06:14:20;1.70;;;0.83;;
18740;SDS011;9499;52.472;13.448;2022-07-26T06:16:47;1.77;;;1.23;;
18740;SDS011;9499;52.472;13.448;2022-07-26T06:19:14;1.80;;;0.70;;
18740;SDS011;9499;52.472;13.448;2022-07-26T06:21:43;1.23;;;1.00;;
18740;SDS011;9499;52.472;13.448;2022-07-26T06:24:10;3.10;;;0.70;;
18740;SDS011;9499;52.472;13.448;2022-07-26T06:26:37;1.10;;;0.50;;
18740;SDS011;9499;52.472;13.448;2022-07-26T06:29:04;1.40;;;0.90;;
18740;SDS011;9499;52.472;13.448;2022-07-26T06:31:32;2.23;;;0.90;;
18740;SDS011;9499;52.472;13.448;2022-07-26T06:33:58;1.80;;;0.80;;
18740;SDS011;9499;52.472;13.448;2022-07-26T06:36:25;1.80;;;0.90;;
18740;SDS011;9499;52.472;13.448;2022-07-26T06:38:51;1.10;;;0.50;;
18740;SDS011;9499;52.472;13.448;2022-07-26T06:41:18;1.07;;;0.50;;
18740;SDS011;9499;52.472;13.448;2022-07-26T06:43:45;1.27;;;0.70;;
18740;SDS011;9499;52.472;13.448;2022-07-26T06:46:11;1.63;;;0.90;;
18740;SDS011;9499;52.472;13.448;2022-07-26T06:48:39;1.73;;;0.77;;
18740;SDS011;9499;52.472;13.448;2022-07-26T06:51:06;1.90;;;0.93;;
18740;SDS011;9499;52.472;13.448;2022-07-26T06:53:34;1.20;;;0.80;;
18740;SDS011;9499;52.472;13.448;2022-07-26T06:56:00;1.40;;;1.00;;
18740;SDS011;9499;52.472;13.448;2022-07-26T06:58:27;1.23;;;0.63;;
18740;SDS011;9499;52.472;13.448;2022-07-26T07:00:54;1.60;;;0.50;;
18740;SDS011;9499;52.472;13.448;2022-07-26T07:03:20;1.20;;;0.50;;
18740;SDS011;9499;52.472;13.448;2022-07-26T07:05:48;1.07;;;0.47;;
18740;SDS011;9499;52.472;13.448;2022-07-26T07:08:14;2.80;;;0.60;;
18740;SDS011;9499;52.472;13.448;2022-07-26T07:10:41;1.13;;;0.60;;
18740;SDS011;9499;52.472;13.448;2022-07-26T07:13:08;1.00;;;0.40;;
18740;SDS011;9499;52.472;13.448;2022-07-26T07:15:34;1.20;;;0.53;;
18740;SDS011;9499;52.472;13.448;2022-07-26T07:18:01;1.40;;;0.70;;
18740;SDS011;9499;52.472;13.448;2022-07-26T07:20:28;2.57;;;1.30;;
18740;SDS011;9499;52.472;13.448;2022-07-26T07:22:56;1.00;;;0.40;;
18740;SDS011;9499;52.472;13.448;2022-07-26T07:25:22;1.33;;;0.53;;
18740;SDS011;9499;52.472;13.448;2022-07-26T07:27:49;2.03;;;0.70;;
18740;SDS011;9499;52.472;13.448;2022-07-26T07:30:16;1.30;;;0.60;;
18740;SDS011;9499;52.472;13.448;2022-07-26T07:32:42;1.20;;;0.60;;
18740;SDS011;9499;52.472;13.448;2022-07-26T07:35:09;2.03;;;0.57;;
18740;SDS011;9499;52.472;13.448;2022-07-26T07:37:39;1.30;;;0.60;;
18740;SDS011;9499;52.472;13.448;2022-07-26T07:40:08;5.33;;;0.60;;
18740;SDS011;9499;52.472;13.448;2022-07-26T07:42:35;3.07;;;0.80;;
18740;SDS011;9499;52.472;13.448;2022-07-26T07:45:02;1.40;;;0.90;;
18740;SDS011;9499;52.472;13.448;2022-07-26T07:47:31;1.30;;;0.50;;
18740;SDS011;9499;52.472;13.448;2022-07-26T07:49:58;1.20;;;0.43;;
18740;SDS011;9499;52.472;13.448;2022-07-26T07:52:26;1.80;;;1.30;;
18740;SDS011;9499;52.472;13.448;2022-07-26T07:54:52;2.70;;;1.30;;
18740;SDS011;9499;52.472;13.448;2022-07-26T07:57:20;1.10;;;0.50;;
18740;SDS011;9499;52.472;13.448;2022-07-26T07:59:47;1.20;;;0.57;;
18740;SDS011;9499;52.472;13.448;2022-07-26T08:02:13;1.87;;;1.17;;
18740;SDS011;9499;52.472;13.448;2022-07-26T08:04:40;1.10;;;0.50;;
18740;SDS011;9499;52.472;13.448;2022-07-26T08:07:07;1.10;;;0.50;;
18740;SDS011;9499;52.472;13.448;2022-07-26T08:09:33;1.17;;;0.63;;
18740;SDS011;9499;52.472;13.448;2022-07-26T08:12:00;1.53;;;0.50;;
18740;SDS011;9499;52.472;13.448;2022-07-26T08:14:27;1.10;;;0.40;;
18740;SDS011;9499;52.472;13.448;2022-07-26T08:16:54;1.27;;;0.57;;
18740;SDS011;9499;52.472;13.448;2022-07-26T08:19:21;1.10;;;0.40;;
18740;SDS011;9499;52.472;13.448;2022-07-26T08:21:47;1.70;;;0.57;;
18740;SDS011;9499;52.472;13.448;2022-07-26T08:24:14;1.60;;;0.63;;
18740;SDS011;9499;52.472;13.448;2022-07-26T08:26:40;1.97;;;1.10;;
18740;SDS011;9499;52.472;13.448;2022-07-26T08:29:07;1.70;;;0.60;;
18740;SDS011;9499;52.472;13.448;2022-07-26T08:31:35;1.20;;;0.50;;
18740;SDS011;9499;52.472;13.448;2022-07-26T08:34:02;1.50;;;1.00;;
18740;SDS011;9499;52.472;13.448;2022-07-26T08:36:28;1.10;;;0.50;;
18740;SDS011;9499;52.472;13.448;2022-07-26T08:38:55;1.17;;;0.50;;
18740;SDS011;9499;52.472;13.448;2022-07-26T08:41:21;1.10;;;0.40;;
18740;SDS011;9499;52.472;13.448;2022-07-26T08:43:48;1.10;;;0.50;;
18740;SDS011;9499;52.472;13.448;2022-07-26T08:46:14;1.40;;;0.50;;
18740;SDS011;9499;52.472;13.448;2022-07-26T08:48:42;1.10;;;0.40;;
18740;SDS011;9499;52.472;13.448;2022-07-26T08:51:09;1.90;;;0.80;;
18740;SDS011;9499;52.472;13.448;2022-07-26T08:53:36;1.30;;;0.53;;
18740;SDS011;9499;52.472;13.448;2022-07-26T08:56:04;1.10;;;0.33;;
18740;SDS011;9499;52.472;13.448;2022-07-26T08:58:32;1.23;;;0.40;;
18740;SDS011;9499;52.472;13.448;2022-07-26T09:01:03;1.07;;;0.30;;
18740;SDS011;9499;52.472;13.448;2022-07-26T09:03:30;2.13;;;0.70;;
18740;SDS011;9499;52.472;13.448;2022-07-26T09:06:10;1.30;;;0.40;;
18740;SDS011;9499;52.472;13.448;2022-07-26T09:08:41;1.83;;;0.57;;
18740;SDS011;9499;52.472;13.448;2022-07-26T09:11:25;1.43;;;0.40;;
18740;SDS011;9499;52.472;13.448;2022-07-26T09:13:53;1.10;;;0.40;;
18740;SDS011;9499;52.472;13.448;2022-07-26T09:16:21;1.40;;;0.70;;
18740;SDS011;9499;52.472;13.448;2022-07-26T09:18:48;1.10;;;0.40;;
18740;SDS011;9499;52.472;13.448;2022-07-26T09:21:26;1.33;;;0.73;;
18740;SDS011;9499;52.472;13.448;2022-07-26T09:23:54;1.10;;;0.30;;
18740;SDS011;9499;52.472;13.448;2022-07-26T09:26:20;1.30;;;0.57;;
18740;SDS011;9499;52.472;13.448;2022-07-26T09:28:51;1.37;;;0.50;;
18740;SDS011;9499;52.472;13.448;2022-07-26T09:31:27;1.67;;;0.40;;
18740;SDS011;9499;52.472;13.448;2022-07-26T09:33:53;2.80;;;0.73;;
18740;SDS011;9499;52.472;13.448;2022-07-26T09:36:20;1.97;;;0.70;;
18740;SDS011;9499;52.472;13.448;2022-07-26T09:38:48;1.20;;;0.50;;
18740;SDS011;9499;52.472;13.448;2022-07-26T09:41:17;1.20;;;0.50;;
18740;SDS011;9499;52.472;13.448;2022-07-26T09:43:45;1.30;;;0.57;;
18740;SDS011;9499;52.472;13.448;2022-07-26T09:46:14;1.20;;;0.50;;
18740;SDS011;9499;52.472;13.448;2022-07-26T09:48:42;1.10;;;0.40;;
18740;SDS011;9499;52.472;13.448;2022-07-26T09:51:09;1.43;;;0.87;;
18740;SDS011;9499;52.472;13.448;2022-07-26T09:53:39;1.10;;;0.30;;
18740;SDS011;9499;52.472;13.448;2022-07-26T09:56:08;1.50;;;0.70;;
18740;SDS011;9499;52.472;13.448;2022-07-26T09:58:35;1.13;;;0.43;;
18740;SDS011;9499;52.472;13.448;2022-07-26T10:01:03;4.23;;;0.60;;
18740;SDS011;9499;52.472;13.448;2022-07-26T10:03:32;1.13;;;0.60;;
18740;SDS011;9499;52.472;13.448;2022-07-26T10:06:01;1.60;;;0.50;;
18740;SDS011;9499;52.472;13.448;2022-07-26T10:08:29;1.20;;;0.47;;
18740;SDS011;9499;52.472;13.448;2022-07-26T10:10:59;1.30;;;0.60;;
18740;SDS011;9499;52.472;13.448;2022-07-26T10:13:29;1.30;;;0.50;;
18740;SDS011;9499;52.472;13.448;2022-07-26T10:15:56;1.60;;;0.83;;
18740;SDS011;9499;52.472;13.448;2022-07-26T10:18:41;1.40;;;0.40;;
18740;SDS011;9499;52.472;13.448;2022-07-26T10:21:19;1.10;;;0.50;;
18740;SDS011;9499;52.472;13.448;2022-07-26T10:23:48;1.20;;;0.53;;
18740;SDS011;9499;52.472;13.448;2022-07-26T10:26:35;1.07;;;0.30;;
18740;SDS011;9499;52.472;13.448;2022-07-26T10:29:26;1.20;;;0.53;;
18740;SDS011;9499;52.472;13.448;2022-07-26T10:32:12;1.30;;;0.50;;
18740;SDS011;9499;52.472;13.448;2022-07-26T10:34:40;1.30;;;0.53;;
18740;SDS011;9499;52.472;13.448;2022-07-26T10:37:08;1.20;;;0.50;;
18740;SDS011;9499;52.472;13.448;2022-07-26T10:39:36;1.20;;;0.40;;
18740;SDS011;9499;52.472;13.448;2022-07-26T10:42:04;1.30;;;0.63;;
18740;SDS011;9499;52.472;13.448;2022-07-26T10:44:33;1.10;;;0.30;;
18740;SDS011;9499;52.472;13.448;2022-07-26T10:47:10;1.20;;;0.60;;
18740;SDS011;9499;52.472;13.448;2022-07-26T10:49:41;1.20;;;0.40;;
18740;SDS011;9499;52.472;13.448;2022-07-26T10:52:11;1.30;;;0.50;;
18740;SDS011;9499;52.472;13.448;2022-07-26T10:55:02;1.43;;;0.90;;
18740;SDS011;9499;52.472;13.448;2022-07-26T10:57:31;1.20;;;0.50;;
18740;SDS011;9499;52.472;13.448;2022-07-26T11:00:00;1.33;;;0.47;;
18740;SDS011;9499;52.472;13.448;2022-07-26T11:02:29;1.10;;;0.50;;
18740;SDS011;9499;52.472;13.448;2022-07-26T11:04:57;1.20;;;0.57;;
18740;SDS011;9499;52.472;13.448;2022-07-26T11:07:24;1.53;;;0.70;;
18740;SDS011;9499;52.472;13.448;2022-07-26T11:09:53;1.10;;;0.37;;
18740;SDS011;9499;52.472;13.448;2022-07-26T11:12:20;1.40;;;0.80;;
18740;SDS011;9499;52.472;13.448;2022-07-26T11:14:47;1.17;;;0.50;;
18740;SDS011;9499;52.472;13.448;2022-07-26T11:17:23;2.03;;;0.53;;
18740;SDS011;9499;52.472;13.448;2022-07-26T11:19:49;2.03;;;0.60;;
18740;SDS011;9499;52.472;13.448;2022-07-26T11:22:16;1.10;;;0.50;;
18740;SDS011;9499;52.472;13.448;2022-07-26T11:24:43;1.87;;;0.60;;
18740;SDS011;9499;52.472;13.448;2022-07-26T11:27:10;1.20;;;0.40;;
18740;SDS011;9499;52.472;13.448;2022-07-26T11:29:37;1.10;;;0.30;;
18740;SDS011;9499;52.472;13.448;2022-07-26T11:32:05;1.10;;;0.40;;
18740;SDS011;9499;52.472;13.448;2022-07-26T11:34:41;1.30;;;0.40;;
18740;SDS011;9499;52.472;13.448;2022-07-26T11:37:08;1.77;;;0.53;;
18740;SDS011;9499;52.472;13.448;2022-07-26T11:39:35;1.40;;;0.87;;
18740;SDS011;9499;52.472;13.448;2022-07-26T11:42:02;1.20;;;0.50;;
18740;SDS011;9499;52.472;13.448;2022-07-26T11:44:31;1.10;;;0.40;;
18740;SDS011;9499;52.472;13.448;2022-07-26T11:46:59;1.20;;;0.40;;
18740;SDS011;9499;52.472;13.448;2022-07-26T11:49:34;1.53;;;0.50;;
18740;SDS011;9499;52.472;13.448;2022-07-26T11:52:03;1.20;;;0.50;;
18740;SDS011;9499;52.472;13.448;2022-07-26T11:54:30;1.40;;;0.50;;
18740;SDS011;9499;52.472;13.448;2022-07-26T11:56:58;1.40;;;0.60;;
18740;SDS011;9499;52.472;13.448;2022-07-26T11:59:27;1.20;;;0.50;;
18740;SDS011;9499;52.472;13.448;2022-07-26T12:01:56;2.90;;;0.60;;
18740;SDS011;9499;52.472;13.448;2022-07-26T12:04:24;1.60;;;0.50;;
18740;SDS011;9499;52.472;13.448;2022-07-26T12:06:53;1.27;;;0.57;;
18740;SDS011;9499;52.472;13.448;2022-07-26T12:09:30;1.73;;;0.70;;
18740;SDS011;9499;52.472;13.448;2022-07-26T12:11:57;1.17;;;0.43;;
18740;SDS011;9499;52.472;13.448;2022-07-26T12:14:25;1.30;;;0.47;;
18740;SDS011;9499;52.472;13.448;2022-07-26T12:16:52;1.27;;;0.50;;
18740;SDS011;9499;52.472;13.448;2022-07-26T12:19:23;1.37;;;0.40;;
18740;SDS011;9499;52.472;13.448;2022-07-26T12:21:53;1.27;;;0.60;;
18740;SDS011;9499;52.472;13.448;2022-07-26T12:24:38;1.30;;;0.60;;
18740;SDS011;9499;52.472;13.448;2022-07-26T12:27:07;1.50;;;0.67;;
18740;SDS011;9499;52.472;13.448;2022-07-26T12:29:35;1.17;;;0.47;;
18740;SDS011;9499;52.472;13.448;2022-07-26T12:32:04;1.40;;;0.67;;
18740;SDS011;9499;52.472;13.448;2022-07-26T12:34:32;1.10;;;0.40;;
18740;SDS011;9499;52.472;13.448;2022-07-26T12:37:12;1.40;;;0.60;;
18740;SDS011;9499;52.472;13.448;2022-07-26T12:39:56;1.53;;;0.60;;
18740;SDS011;9499;52.472;13.448;2022-07-26T12:42:26;1.40;;;0.60;;
18740;SDS011;9499;52.472;13.448;2022-07-26T12:44:54;1.47;;;0.70;;
18740;SDS011;9499;52.472;13.448;2022-07-26T12:47:21;1.10;;;0.43;;
18740;SDS011;9499;52.472;13.448;2022-07-26T12:49:48;1.20;;;0.67;;
18740;SDS011;9499;52.472;13.448;2022-07-26T12:52:15;1.20;;;0.60;;
18740;SDS011;9499;52.472;13.448;2022-07-26T12:54:45;1.30;;;0.93;;
18740;SDS011;9499;52.472;13.448;2022-07-26T12:57:12;1.20;;;0.50;;
18740;SDS011;9499;52.472;13.448;2022-07-26T12:59:39;1.10;;;0.40;;
18740;SDS011;9499;52.472;13.448;2022-07-26T13:02:06;1.10;;;0.40;;
18740;SDS011;9499;52.472;13.448;2022-07-26T13:04:32;1.10;;;0.57;;
18740;SDS011;9499;52.472;13.448;2022-07-26T13:06:59;1.30;;;0.67;;
18740;SDS011;9499;52.472;13.448;2022-07-26T13:09:26;1.53;;;0.97;;
18740;SDS011;9499;52.472;13.448;2022-07-26T13:11:54;1.20;;;0.60;;
18740;SDS011;9499;52.472;13.448;2022-07-26T13:14:22;1.10;;;0.50;;
18740;SDS011;9499;52.472;13.448;2022-07-26T13:16:48;1.30;;;0.50;;
18740;SDS011;9499;52.472;13.448;2022-07-26T13:19:15;1.10;;;0.60;;
18740;SDS011;9499;52.472;13.448;2022-07-26T13:21:41;1.03;;;0.50;;
18740;SDS011;9499;52.472;13.448;2022-07-26T13:24:08;1.07;;;0.53;;
18740;SDS011;9499;52.472;13.448;2022-07-26T13:26:35;1.20;;;0.70;;
18740;SDS011;9499;52.472;13.448;2022-07-26T13:29:02;1.20;;;0.73;;
18740;SDS011;9499;52.472;13.448;2022-07-26T13:31:30;1.10;;;0.50;;
18740;SDS011;9499;52.472;13.448;2022-07-26T13:33:57;1.00;;;0.40;;
18740;SDS011;9499;52.472;13.448;2022-07-26T13:36:24;1.80;;;0.67;;
18740;SDS011;9499;52.472;13.448;2022-07-26T13:38:50;1.00;;;0.47;;
18740;SDS011;9499;52.472;13.448;2022-07-26T13:41:17;1.10;;;0.60;;
18740;SDS011;9499;52.472;13.448;2022-07-26T13:43:44;1.30;;;0.50;;
18740;SDS011;9499;52.472;13.448;2022-07-26T13:46:12;1.13;;;0.63;;
18740;SDS011;9499;52.472;13.448;2022-07-26T13:48:38;1.40;;;0.63;;
18740;SDS011;9499;52.472;13.448;2022-07-26T13:51:05;1.13;;;0.70;;
18740;SDS011;9499;52.472;13.448;2022-07-26T13:53:33;1.10;;;0.50;;
18740;SDS011;9499;52.472;13.448;2022-07-26T13:56:00;1.10;;;0.40;;
18740;SDS011;9499;52.472;13.448;2022-07-26T13:58:26;1.00;;;0.40;;
18740;SDS011;9499;52.472;13.448;2022-07-26T14:00:53;1.03;;;0.40;;
18740;SDS011;9499;52.472;13.448;2022-07-26T14:03:21;1.63;;;1.17;;
18740;SDS011;9499;52.472;13.448;2022-07-26T14:05:48;1.40;;;0.70;;
18740;SDS011;9499;52.472;13.448;2022-07-26T14:08:15;1.33;;;0.57;;
18740;SDS011;9499;52.472;13.448;2022-07-26T14:10:41;1.13;;;0.50;;
18740;SDS011;9499;52.472;13.448;2022-07-26T14:13:08;1.20;;;0.50;;
18740;SDS011;9499;52.472;13.448;2022-07-26T14:15:35;1.17;;;0.53;;
18740;SDS011;9499;52.472;13.448;2022-07-26T14:18:01;1.10;;;0.40;;
18740;SDS011;9499;52.472;13.448;2022-07-26T14:20:29;1.20;;;0.50;;
18740;SDS011;9499;52.472;13.448;2022-07-26T14:22:56;1.20;;;0.50;;
18740;SDS011;9499;52.472;13.448;2022-07-26T14:25:23;1.10;;;0.47;;
18740;SDS011;9499;52.472;13.448;2022-07-26T14:27:51;1.23;;;0.80;;
18740;SDS011;9499;52.472;13.448;2022-07-26T14:30:19;1.37;;;0.63;;
18740;SDS011;9499;52.472;13.448;2022-07-26T14:32:46;1.27;;;0.40;;
18740;SDS011;9499;52.472;13.448;2022-07-26T14:35:13;1.30;;;1.00;;
18740;SDS011;9499;52.472;13.448;2022-07-26T14:37:42;1.10;;;0.40;;
18740;SDS011;9499;52.472;13.448;2022-07-26T14:40:10;1.20;;;0.70;;
18740;SDS011;9499;52.472;13.448;2022-07-26T14:42:37;1.00;;;0.30;;
18740;SDS011;9499;52.472;13.448;2022-07-26T14:45:04;1.30;;;0.60;;
18740;SDS011;9499;52.472;13.448;2022-07-26T14:47:33;9.63;;;0.90;;
18740;SDS011;9499;52.472;13.448;2022-07-26T14:49:59;1.20;;;0.50;;
18740;SDS011;9499;52.472;13.448;2022-07-26T14:52:26;1.33;;;0.50;;